VTBD Airport Information

Runway Information
Runway 03R Length 11483 ft width 148 ft
Elevation 7 ft Threshold ft Heading 29
Runway 21L Length 11483 ft Width 148 ft
Elevation 8 ft Threshold 1148 ft Heading 209
Runway 03L Length 12139 ft width 197 ft
Elevation 7 ft Threshold ft Heading 29
Runway 21R Length 12139 ft Width 197 ft
Elevation 7 ft Threshold ft Heading 209
Airport Frequencies
Type APP Name APP Frequency 119.4 MHZ
Type ARR Name ARR Frequency 125.5 MHZ
Type ATIS Name ATIS Frequency 126.4 MHZ
Type CLD Name CLNC DEL Frequency 125.95 MHZ
Type GND Name GND Frequency 121.9 MHZ
Type TWR Name TWR Frequency 118.1 MHZ
Airport Navaids
Type NDB Name Bangkok Frequency 293 KHZ
Type VOR-DME Name Bangkok Frequency 117700 KHZ
Airport Weather Information & NOTAM
ADDS - METARS form results

(1217 UTC 06 February 2023)
Data provider http://aviationweather.gov/metar/data/
 
METAR text: VTBD 061200Z 18008KT 150V210 9999 FEW020 30/22 Q1007 NOSIG
Conditions at: VTBD (BANGKOK/DON MUAN, TH) observed 1200 UTC 06 February 2023
Temperature: 30.0°C (86°F)
Dewpoint: 22.0°C (72°F) [RH = 62%]
Pressure (altimeter): 29.73 inches Hg (1007.0 mb)
Winds: from the S (180 degrees) at 9 MPH (8 knots; 4.1 m/s)
Visibility: 6 or more miles (10+ km)
Ceiling: at least 12,000 feet AGL
Clouds: few clouds at 2000 feet AGL
Weather: no significant weather observed at this time

METAR text: VTBD 061130Z 15008KT 9999 FEW020 31/23 Q1007 NOSIG
Conditions at: VTBD (BANGKOK/DON MUAN, TH) observed 1130 UTC 06 February 2023
Temperature: 31.0°C (88°F)
Dewpoint: 23.0°C (73°F) [RH = 63%]
Pressure (altimeter): 29.73 inches Hg (1007.0 mb)
Winds: from the SSE (150 degrees) at 9 MPH (8 knots; 4.1 m/s)
Visibility: 6 or more miles (10+ km)
Ceiling: at least 12,000 feet AGL
Clouds: few clouds at 2000 feet AGL
Weather: no significant weather observed at this time

Forecast for: VTBD (BANGKOK/DON MUAN, TH)
Text: TAF VTBD 061100Z 0612/0718 18008KT 9999 FEW020
Forecast period: 1200 UTC 06 February 2023 to 1800 UTC 07 February 2023
Forecast type: FROM: standard forecast or significant change
Winds: from the S (180 degrees) at 9 MPH (8 knots; 4.1 m/s)
Visibility: 6 or more miles (10+ km)
Ceiling: at least 12,000 feet AGL
Clouds: few clouds at 2000 feet AGL
Weather: no significant weather forecast for this period
Text: TEMPO 0706/0710 VRB10G25KT 4000 TSRA FEW018CB SCT030 BKN100
Forecast period: 0600 to 1000 UTC 07 February 2023
Forecast type: TEMPORARY: The following changes expected for less than half the time period
Winds: variable direction winds at 12 MPH (10 knots; 5.1 m/s)
gusting to 29 MPH (25 knots; 12.9 m/s)
Visibility: 2.49 miles (4.01 km)
Ceiling: 10000 feet AGL
Clouds: few clouds at 1800 feet AGL
scattered clouds at 3000 feet AGL
broken clouds at 10000 feet AGL
Weather: TSRA  (rain associated with thunderstorm(s))